createdAt,value
2018-03-20T00:02:01.817Z,67.40
2018-03-20T00:04:28.040Z,67.40
2018-03-20T00:06:54.319Z,67.90
2018-03-20T00:09:21.282Z,67.80
2018-03-20T00:11:48.236Z,66.90
2018-03-20T00:14:15.266Z,66.40
2018-03-20T00:16:41.466Z,66.40
2018-03-20T00:19:07.738Z,68.40
2018-03-20T00:21:34.681Z,67.50
2018-03-20T00:24:01.632Z,68.20
2018-03-20T00:26:28.568Z,69.30
2018-03-20T00:28:55.535Z,68.60
2018-03-20T00:31:21.764Z,68.60
2018-03-20T00:33:47.950Z,68.60
2018-03-20T00:36:14.150Z,68.30
2018-03-20T00:38:40.342Z,68.90
2018-03-20T00:41:06.539Z,69.10
2018-03-20T00:43:32.763Z,70.10
2018-03-20T00:45:58.980Z,68.70
2018-03-20T00:48:25.171Z,68.10
2018-03-20T00:50:51.509Z,69.10
2018-03-20T00:53:17.739Z,67.90
2018-03-20T00:55:43.992Z,68.50
2018-03-20T00:58:10.188Z,68.10
2018-03-20T01:00:36.636Z,69.10
2018-03-20T01:03:02.850Z,68.20
2018-03-20T01:05:29.123Z,67.10
2018-03-20T01:07:55.355Z,67.00
2018-03-20T01:10:21.613Z,67.70
2018-03-20T01:12:48.526Z,67.10
2018-03-20T01:15:14.764Z,67.00
2018-03-20T01:17:40.953Z,68.20
2018-03-20T01:20:07.282Z,67.70
2018-03-20T01:22:33.469Z,67.50
2018-03-20T01:24:59.676Z,67.30
2018-03-20T01:27:25.904Z,66.70
2018-03-20T01:29:52.130Z,68.80
2018-03-20T01:32:18.499Z,67.20
2018-03-20T01:34:45.427Z,67.70
2018-03-20T01:37:11.655Z,67.70
2018-03-20T01:39:37.866Z,66.80
2018-03-20T01:42:04.090Z,67.20
2018-03-20T01:44:30.290Z,67.80
2018-03-20T01:46:56.499Z,67.50
2018-03-20T01:49:22.758Z,67.20
2018-03-20T01:51:48.988Z,67.10
2018-03-20T01:54:15.180Z,67.50
2018-03-20T01:56:41.388Z,68.00
2018-03-20T01:59:07.663Z,67.40
2018-03-20T02:01:33.914Z,67.30
2018-03-20T02:04:00.101Z,67.10
2018-03-20T02:06:26.357Z,67.00
2018-03-20T02:08:52.664Z,67.30
2018-03-20T02:11:18.889Z,67.30
2018-03-20T02:13:45.088Z,66.80
2018-03-20T02:16:11.289Z,67.30
2018-03-20T02:18:37.483Z,67.40
2018-03-20T02:21:03.724Z,67.20
2018-03-20T02:23:29.922Z,67.30
2018-03-20T02:25:56.880Z,67.10
2018-03-20T02:28:23.078Z,67.10
2018-03-20T02:30:49.306Z,67.40
2018-03-20T02:33:15.519Z,67.30
2018-03-20T02:35:41.732Z,67.20
2018-03-20T02:38:07.919Z,67.00
2018-03-20T02:40:34.102Z,66.90
2018-03-20T02:43:00.340Z,67.20
2018-03-20T02:45:26.521Z,67.40
2018-03-20T02:47:52.744Z,67.50
2018-03-20T02:50:18.954Z,67.40
2018-03-20T02:52:45.888Z,67.10
2018-03-20T02:55:12.824Z,67.50
2018-03-20T02:57:39.029Z,67.50
2018-03-20T03:00:05.518Z,68.60
2018-03-20T03:02:31.739Z,68.30
2018-03-20T03:04:57.922Z,67.60
2018-03-20T03:07:24.125Z,67.50
2018-03-20T03:09:50.341Z,69.20
2018-03-20T03:12:16.538Z,67.80
2018-03-20T03:14:43.508Z,67.90
2018-03-20T03:17:09.710Z,67.90
2018-03-20T03:19:36.673Z,68.20
2018-03-20T03:22:02.887Z,68.10
2018-03-20T03:24:29.824Z,68.60
2018-03-20T03:26:56.052Z,68.60
2018-03-20T03:29:22.259Z,69.50
2018-03-20T03:31:48.449Z,68.50
2018-03-20T03:34:14.685Z,68.50
2018-03-20T03:36:40.901Z,68.90
2018-03-20T03:39:07.114Z,68.50
2018-03-20T03:41:33.308Z,69.20
2018-03-20T03:43:59.495Z,68.30
2018-03-20T03:46:25.689Z,68.60
2018-03-20T03:48:52.646Z,68.60
2018-03-20T03:51:18.934Z,68.60
2018-03-20T03:53:45.122Z,68.60
2018-03-20T03:56:11.409Z,68.80
2018-03-20T03:58:38.400Z,68.60
2018-03-20T04:01:04.647Z,68.60
2018-03-20T04:03:30.826Z,68.30
2018-03-20T04:05:57.776Z,69.40
2018-03-20T04:08:24.783Z,69.10
2018-03-20T04:10:51.002Z,69.10
2018-03-20T04:13:17.277Z,69.20
2018-03-20T04:15:44.213Z,69.10
2018-03-20T04:18:10.460Z,69.10
2018-03-20T04:20:37.429Z,69.40
2018-03-20T04:23:03.704Z,69.20
2018-03-20T04:25:30.070Z,68.80
2018-03-20T04:27:56.988Z,69.70
2018-03-20T04:30:23.180Z,69.50
2018-03-20T04:32:49.360Z,68.90
2018-03-20T04:35:16.405Z,68.80
2018-03-20T04:37:42.577Z,69.50
2018-03-20T04:40:08.849Z,69.60
2018-03-20T04:42:35.063Z,70.50
2018-03-20T04:45:01.301Z,70.90
2018-03-20T04:47:27.556Z,69.50
2018-03-20T04:49:53.762Z,69.40
2018-03-20T04:52:20.075Z,70.50
2018-03-20T04:54:46.277Z,70.10
2018-03-20T04:57:12.472Z,69.50
2018-03-20T04:59:39.443Z,69.70
2018-03-20T05:02:06.038Z,69.60
2018-03-20T05:04:32.239Z,69.80
2018-03-20T05:06:58.580Z,70.00
2018-03-20T05:09:24.806Z,69.70
2018-03-20T05:11:51.067Z,69.80
2018-03-20T05:14:18.034Z,69.80
2018-03-20T05:16:45.007Z,70.00
2018-03-20T05:22:26.380Z,70.50
2018-03-20T05:24:53.524Z,70.30
2018-03-20T05:27:20.493Z,70.20
2018-03-20T05:29:46.849Z,70.20
2018-03-20T05:32:13.166Z,70.40
2018-03-20T05:34:39.401Z,70.10
2018-03-20T05:37:05.906Z,70.20
2018-03-20T05:39:32.886Z,70.30
2018-03-20T05:41:59.163Z,70.30
2018-03-20T05:44:26.201Z,70.00
2018-03-20T05:50:04.052Z,70.00
2018-03-20T05:52:31.123Z,70.10
2018-03-20T05:54:57.377Z,70.00
2018-03-20T05:57:23.621Z,70.10
2018-03-20T05:59:49.882Z,70.70
2018-03-20T06:02:16.896Z,70.10
2018-03-20T06:04:43.120Z,70.00
2018-03-20T06:07:09.371Z,70.40
2018-03-20T06:09:35.554Z,69.90
2018-03-20T06:12:01.816Z,70.20
2018-03-20T06:14:28.015Z,70.20
2018-03-20T06:16:54.318Z,70.50
2018-03-20T06:19:20.540Z,70.20
2018-03-20T06:21:46.797Z,70.40
2018-03-20T06:24:13.024Z,70.40
2018-03-20T06:26:39.197Z,70.20
2018-03-20T06:29:05.617Z,70.40
2018-03-20T06:31:31.813Z,69.70
2018-03-20T06:33:58.013Z,70.20
2018-03-20T06:36:24.942Z,70.20
2018-03-20T06:38:51.325Z,70.10
2018-03-20T06:41:18.213Z,69.80
2018-03-20T06:43:44.492Z,69.70
2018-03-20T06:46:10.717Z,69.70
2018-03-20T06:48:36.916Z,69.90
2018-03-20T06:51:03.982Z,69.30
2018-03-20T06:53:30.153Z,69.30
2018-03-20T06:55:56.397Z,69.30
2018-03-20T06:58:22.611Z,69.70
2018-03-20T07:00:48.845Z,69.20
2018-03-20T07:03:15.050Z,69.20
2018-03-20T07:05:41.312Z,69.20
2018-03-20T07:08:07.543Z,69.20
2018-03-20T07:10:33.776Z,69.20
2018-03-20T07:12:59.957Z,69.20
2018-03-20T07:15:26.160Z,69.20
2018-03-20T07:17:53.113Z,69.20
2018-03-20T07:20:19.378Z,69.20
2018-03-20T07:22:45.612Z,69.20
2018-03-20T07:25:11.850Z,69.20
2018-03-20T07:27:38.112Z,69.40
2018-03-20T07:30:05.117Z,69.20
2018-03-20T07:32:31.355Z,69.20
2018-03-20T07:34:57.533Z,69.10
2018-03-20T07:37:23.758Z,69.00
2018-03-20T07:39:50.760Z,68.80
2018-03-20T07:42:16.983Z,68.70
2018-03-20T07:44:43.174Z,68.70
2018-03-20T07:47:09.376Z,68.70
2018-03-20T07:49:36.324Z,68.50
2018-03-20T07:52:03.314Z,68.50
2018-03-20T07:54:29.589Z,68.40
2018-03-20T07:56:55.814Z,68.30
2018-03-20T07:59:22.770Z,68.40
2018-03-20T08:01:49.006Z,68.30
2018-03-20T08:04:15.982Z,68.20
2018-03-20T08:06:42.180Z,68.10
2018-03-20T08:09:09.186Z,68.00
2018-03-20T08:11:35.382Z,68.00
2018-03-20T08:14:01.599Z,67.70
2018-03-20T08:16:27.839Z,67.60
2018-03-20T08:18:54.102Z,67.60
2018-03-20T08:21:20.305Z,67.40
2018-03-20T08:23:46.531Z,67.30
2018-03-20T08:26:12.741Z,67.30
2018-03-20T08:28:38.985Z,67.10
2018-03-20T08:31:05.180Z,67.00
2018-03-20T08:33:31.377Z,66.60
2018-03-20T08:35:57.612Z,66.70
2018-03-20T08:38:23.922Z,66.20
2018-03-20T08:40:50.124Z,66.70
2018-03-20T08:43:16.333Z,65.90
2018-03-20T08:45:43.249Z,66.00
2018-03-20T08:48:09.425Z,65.90
2018-03-20T08:50:35.614Z,66.00
2018-03-20T08:53:02.574Z,65.40
2018-03-20T08:55:28.792Z,65.40
2018-03-20T08:57:55.009Z,65.30
2018-03-20T09:00:21.258Z,64.80
2018-03-20T09:02:47.487Z,65.00
2018-03-20T09:05:13.815Z,65.00
2018-03-20T09:07:40.030Z,64.30
2018-03-20T09:10:06.644Z,64.30
2018-03-20T09:12:32.876Z,64.40
2018-03-20T09:14:59.074Z,63.90
2018-03-20T09:17:25.302Z,63.70
2018-03-20T09:19:51.501Z,63.60
2018-03-20T09:22:17.800Z,63.30
2018-03-20T09:24:44.010Z,64.30
2018-03-20T09:27:10.219Z,63.10
2018-03-20T09:29:36.431Z,62.10
2018-03-20T09:32:03.436Z,62.00
2018-03-20T09:34:29.640Z,61.90
2018-03-20T09:36:55.930Z,61.80
2018-03-20T09:39:22.898Z,61.70
2018-03-20T09:41:50.225Z,61.70
2018-03-20T09:44:16.679Z,62.90
2018-03-20T09:46:42.886Z,61.00
2018-03-20T09:49:09.109Z,61.20
2018-03-20T09:51:35.289Z,60.70
2018-03-20T09:54:01.582Z,61.30
2018-03-20T09:56:28.555Z,60.20
2018-03-20T09:58:54.737Z,60.10
2018-03-20T10:01:20.961Z,60.50
2018-03-20T10:03:47.158Z,60.00
2018-03-20T10:06:13.379Z,60.10
2018-03-20T10:08:39.541Z,59.90
2018-03-20T10:11:05.878Z,60.00
2018-03-20T10:13:32.069Z,59.50
2018-03-20T10:15:58.290Z,59.90
2018-03-20T10:18:24.471Z,59.80
2018-03-20T10:20:50.685Z,59.10
2018-03-20T10:23:16.886Z,59.60
2018-03-20T10:25:43.163Z,59.80
2018-03-20T10:28:10.140Z,60.10
2018-03-20T10:30:36.320Z,60.10
2018-03-20T10:33:02.499Z,60.20
2018-03-20T10:35:28.772Z,61.20
2018-03-20T10:37:54.998Z,60.00
2018-03-20T10:40:21.225Z,60.60
2018-03-20T10:42:47.485Z,60.20
2018-03-20T10:45:14.462Z,60.60
2018-03-20T10:47:40.664Z,60.60
2018-03-20T10:50:07.621Z,61.30
2018-03-20T10:52:34.630Z,61.00
2018-03-20T10:55:00.848Z,61.00
2018-03-20T10:57:27.057Z,61.40
2018-03-20T10:59:53.254Z,61.80
2018-03-20T11:02:19.483Z,61.40
2018-03-20T11:04:45.699Z,61.50
2018-03-20T11:07:12.662Z,60.10
2018-03-20T11:09:38.908Z,60.10
2018-03-20T11:12:05.082Z,61.40
2018-03-20T11:14:31.403Z,61.70
2018-03-20T11:16:57.623Z,61.20
2018-03-20T11:19:23.901Z,60.70
2018-03-20T11:21:50.850Z,62.10
2018-03-20T11:24:17.026Z,61.30
2018-03-20T11:26:43.199Z,61.50
2018-03-20T11:29:10.157Z,61.50
2018-03-20T11:31:36.415Z,61.40
2018-03-20T11:34:02.701Z,60.60
2018-03-20T11:36:29.622Z,61.00
2018-03-20T11:38:55.826Z,60.90
2018-03-20T11:41:22.004Z,61.10
2018-03-20T11:43:48.950Z,60.20
2018-03-20T11:46:16.014Z,60.20
2018-03-20T11:48:42.260Z,60.20
2018-03-20T11:51:08.479Z,60.50
2018-03-20T11:53:34.700Z,60.30
2018-03-20T11:56:00.937Z,59.50
2018-03-20T11:58:27.140Z,60.50
2018-03-20T12:00:54.249Z,60.40
2018-03-20T12:03:20.457Z,60.40
2018-03-20T12:05:46.712Z,60.10
2018-03-20T12:11:12.498Z,59.20
2018-03-20T12:13:38.666Z,59.20
2018-03-20T12:16:04.919Z,60.10
2018-03-20T12:18:31.101Z,59.10
2018-03-20T12:20:57.330Z,59.90
2018-03-20T12:23:23.570Z,60.10
2018-03-20T12:25:49.766Z,60.10
2018-03-20T12:28:15.955Z,60.30
2018-03-20T12:30:42.156Z,60.00
2018-03-20T12:33:08.354Z,59.30
2018-03-20T12:35:35.297Z,59.90
2018-03-20T12:38:02.324Z,59.40
2018-03-20T12:40:29.361Z,59.40
2018-03-20T12:42:55.807Z,59.40
2018-03-20T12:45:22.809Z,59.40
2018-03-20T12:47:49.035Z,59.40
2018-03-20T12:50:15.328Z,59.40
2018-03-20T12:52:41.556Z,59.40
2018-03-20T12:55:08.526Z,59.40
2018-03-20T12:57:34.777Z,59.40
2018-03-20T13:00:00.984Z,58.50
2018-03-20T13:02:27.259Z,59.20
2018-03-20T13:04:53.557Z,59.20
2018-03-20T13:07:19.888Z,59.00
2018-03-20T13:09:46.071Z,59.00
2018-03-20T13:12:13.046Z,59.40
2018-03-20T13:14:39.231Z,59.40
2018-03-20T13:17:05.463Z,59.00
2018-03-20T13:19:32.464Z,58.60
2018-03-20T13:21:58.653Z,58.40
2018-03-20T13:24:25.581Z,58.80
2018-03-20T13:26:51.833Z,58.80
2018-03-20T13:29:18.803Z,58.70
2018-03-20T13:31:45.042Z,58.70
2018-03-20T13:34:11.228Z,58.30
2018-03-20T13:36:38.226Z,57.50
2018-03-20T13:39:04.522Z,57.50
2018-03-20T13:41:30.755Z,57.60
2018-03-20T13:43:56.996Z,58.10
2018-03-20T13:46:23.284Z,58.30
2018-03-20T13:48:49.453Z,58.10
2018-03-20T13:51:15.654Z,58.40
2018-03-20T13:53:42.602Z,58.50
2018-03-20T13:56:09.541Z,58.80
2018-03-20T13:58:36.488Z,58.80
2018-03-20T14:01:03.434Z,58.30
2018-03-20T14:03:30.368Z,58.10
2018-03-20T14:05:56.638Z,58.10
2018-03-20T14:08:22.836Z,57.20
2018-03-20T14:10:49.871Z,57.50
2018-03-20T14:13:16.050Z,57.40
2018-03-20T14:15:42.350Z,56.30
2018-03-20T14:18:09.498Z,57.90
2018-03-20T14:20:36.436Z,58.00
2018-03-20T14:23:03.397Z,58.10
2018-03-20T14:25:29.603Z,58.10
2018-03-20T14:27:56.522Z,57.80
2018-03-20T14:30:22.721Z,57.80
2018-03-20T14:32:48.916Z,57.90
2018-03-20T14:35:15.846Z,57.80
2018-03-20T14:37:42.088Z,57.80
2018-03-20T14:40:09.069Z,57.80
2018-03-20T14:42:35.265Z,57.70
2018-03-20T14:45:02.265Z,57.40
2018-03-20T14:47:28.495Z,57.40
2018-03-20T14:49:54.684Z,57.70
2018-03-20T14:52:20.888Z,57.30
2018-03-20T14:54:47.122Z,57.80
2018-03-20T14:57:14.149Z,56.70
2018-03-20T14:59:40.464Z,56.60
2018-03-20T15:02:06.849Z,57.20
2018-03-20T15:04:33.108Z,57.40
2018-03-20T15:06:59.310Z,56.80
2018-03-20T15:09:25.696Z,57.20
2018-03-20T15:11:51.888Z,57.30
2018-03-20T15:14:18.065Z,57.70
2018-03-20T15:16:44.280Z,56.60
2018-03-20T15:19:10.458Z,57.10
2018-03-20T15:21:36.659Z,57.00
2018-03-20T15:24:03.662Z,57.30
2018-03-20T15:26:29.864Z,57.20
2018-03-20T15:28:56.172Z,57.60
2018-03-20T15:31:23.108Z,57.80
2018-03-20T15:33:49.304Z,57.70
2018-03-20T15:36:15.530Z,57.70
2018-03-20T15:38:41.730Z,56.80
2018-03-20T15:41:07.912Z,57.70
2018-03-20T15:43:34.092Z,57.40
2018-03-20T15:46:00.311Z,56.00
2018-03-20T15:48:26.602Z,56.30
2018-03-20T15:50:52.863Z,57.00
2018-03-20T15:53:20.805Z,57.50
2018-03-20T15:55:47.071Z,57.50
2018-03-20T15:58:13.374Z,57.00
2018-03-20T16:00:39.529Z,57.40
2018-03-20T16:03:06.037Z,57.20
2018-03-20T16:05:32.963Z,56.90
2018-03-20T16:07:59.207Z,56.90
2018-03-20T16:10:25.461Z,56.10
2018-03-20T16:12:51.669Z,57.30
2018-03-20T16:15:17.884Z,56.70
2018-03-20T16:17:44.192Z,55.90
2018-03-20T16:20:10.372Z,56.60
2018-03-20T16:22:37.327Z,56.60
2018-03-20T16:25:03.536Z,56.50
2018-03-20T16:27:30.499Z,56.60
2018-03-20T16:29:56.726Z,56.60
2018-03-20T16:32:23.691Z,56.00
2018-03-20T16:34:49.920Z,56.50
2018-03-20T16:37:16.112Z,56.20
2018-03-20T16:39:43.074Z,56.30
2018-03-20T16:42:10.046Z,56.10
2018-03-20T16:44:36.283Z,56.00
2018-03-20T16:47:02.540Z,54.40
2018-03-20T16:49:28.763Z,54.50
2018-03-20T16:51:55.035Z,55.40
2018-03-20T16:54:22.027Z,56.60
2018-03-20T16:56:48.291Z,56.60
2018-03-20T16:59:14.538Z,56.80
2018-03-20T17:01:41.505Z,55.70
2018-03-20T17:04:07.714Z,55.70
2018-03-20T17:06:34.662Z,55.80
2018-03-20T17:09:01.029Z,55.80
2018-03-20T17:11:27.235Z,56.30
2018-03-20T17:13:53.581Z,57.40
2018-03-20T17:16:19.761Z,57.40
2018-03-20T17:18:46.067Z,57.40
2018-03-20T17:21:12.265Z,57.10
2018-03-20T17:23:38.630Z,57.90
2018-03-20T17:26:04.849Z,57.70
2018-03-20T17:28:31.144Z,58.10
2018-03-20T17:30:57.350Z,58.70
2018-03-20T17:33:24.307Z,58.60
2018-03-20T17:35:51.445Z,59.30
2018-03-20T17:38:18.361Z,59.30
2018-03-20T17:40:44.560Z,59.30
2018-03-20T17:43:10.755Z,59.50
2018-03-20T17:45:37.747Z,60.50
2018-03-20T17:48:03.991Z,60.40
2018-03-20T17:50:30.291Z,60.40
2018-03-20T17:52:56.648Z,60.50
2018-03-20T17:55:22.856Z,60.50
2018-03-20T17:57:49.103Z,60.80
2018-03-20T18:00:15.309Z,60.90
2018-03-20T18:02:41.564Z,60.90
2018-03-20T18:05:07.740Z,61.10
2018-03-20T18:07:34.665Z,62.20
2018-03-20T18:10:00.887Z,62.20
2018-03-20T18:12:27.107Z,61.80
2018-03-20T18:14:53.370Z,61.70
2018-03-20T18:17:20.432Z,62.40
2018-03-20T18:19:46.640Z,62.40
2018-03-20T18:22:13.565Z,63.10
2018-03-20T18:24:41.364Z,62.90
2018-03-20T18:27:08.451Z,63.10
2018-03-20T18:29:34.645Z,63.10
2018-03-20T18:32:00.879Z,63.20
2018-03-20T18:34:27.175Z,63.50
2018-03-20T18:36:53.384Z,63.70
2018-03-20T18:39:19.669Z,63.70
2018-03-20T18:41:45.977Z,64.00
2018-03-20T18:44:12.901Z,64.50
2018-03-20T18:46:39.101Z,64.40
2018-03-20T18:49:05.315Z,64.80
2018-03-20T18:51:31.540Z,64.80
2018-03-20T18:53:57.736Z,64.70
2018-03-20T18:56:24.688Z,65.40
2018-03-20T18:58:51.643Z,65.20
2018-03-20T19:01:17.844Z,65.20
2018-03-20T19:03:44.052Z,65.40
2018-03-20T19:06:10.250Z,65.80
2018-03-20T19:08:36.442Z,65.80
2018-03-20T19:11:03.441Z,66.20
2018-03-20T19:13:29.686Z,66.00
2018-03-20T19:15:55.926Z,66.00
2018-03-20T19:18:22.075Z,66.00
2018-03-20T19:20:49.119Z,66.00
2018-03-20T19:23:16.072Z,66.20
2018-03-20T19:25:43.032Z,66.20
2018-03-20T19:28:09.300Z,66.00
2018-03-20T19:30:35.482Z,66.30
2018-03-20T19:33:02.407Z,66.50
2018-03-20T19:35:29.389Z,66.50
2018-03-20T19:37:56.293Z,66.70
2018-03-20T19:40:22.531Z,66.70
2018-03-20T19:42:49.481Z,67.20
2018-03-20T19:45:16.398Z,66.80
2018-03-20T19:47:42.583Z,66.80
2018-03-20T19:50:08.824Z,66.80
2018-03-20T19:52:35.047Z,66.40
2018-03-20T19:55:01.225Z,66.10
2018-03-20T19:57:27.464Z,66.40
2018-03-20T19:59:54.594Z,66.60
2018-03-20T20:02:20.830Z,66.60
2018-03-20T20:04:47.198Z,66.60
2018-03-20T20:07:13.443Z,66.70
2018-03-20T20:09:39.817Z,66.90
2018-03-20T20:12:06.136Z,67.20
2018-03-20T20:14:33.377Z,67.30
2018-03-20T20:16:59.592Z,67.30
2018-03-20T20:19:25.780Z,67.20
2018-03-20T20:21:52.826Z,67.40
2018-03-20T20:24:19.804Z,67.20
2018-03-20T20:26:46.053Z,67.20
2018-03-20T20:29:12.229Z,67.30
2018-03-20T20:31:39.230Z,68.20
2018-03-20T20:34:05.503Z,68.10
2018-03-20T20:36:32.439Z,68.70
2018-03-20T20:38:58.708Z,68.60
2018-03-20T20:41:24.960Z,68.40
2018-03-20T20:43:51.224Z,68.50
2018-03-20T20:46:17.420Z,68.60
2018-03-20T20:48:43.715Z,68.50
2018-03-20T20:51:09.920Z,68.50
2018-03-20T20:53:36.142Z,68.30
2018-03-20T20:56:02.356Z,68.30
2018-03-20T20:58:28.594Z,68.50
2018-03-20T21:00:54.880Z,68.30
2018-03-20T21:03:21.065Z,68.00
2018-03-20T21:05:47.256Z,68.20
2018-03-20T21:08:13.505Z,69.00
2018-03-20T21:10:39.719Z,68.40
2018-03-20T21:13:05.978Z,68.70
2018-03-20T21:15:32.228Z,68.40
2018-03-20T21:17:59.183Z,69.20
2018-03-20T21:20:25.412Z,69.10
2018-03-20T21:22:51.620Z,69.30
2018-03-20T21:25:18.764Z,68.80
2018-03-20T21:27:45.016Z,68.80
2018-03-20T21:30:11.254Z,69.10
2018-03-20T21:32:37.473Z,69.60
2018-03-20T21:35:04.384Z,69.00
2018-03-20T21:37:30.597Z,69.00
2018-03-20T21:39:57.632Z,70.00
2018-03-20T21:42:23.919Z,70.00
2018-03-20T21:44:50.855Z,69.70
2018-03-20T21:47:17.797Z,69.00
2018-03-20T21:49:44.757Z,69.30
2018-03-20T21:52:11.810Z,69.70
2018-03-20T21:54:38.062Z,69.50
2018-03-20T21:57:04.305Z,69.00
2018-03-20T21:59:30.540Z,68.70
2018-03-20T22:01:56.747Z,68.60
2018-03-20T22:04:22.972Z,68.70
2018-03-20T22:06:49.186Z,68.60
2018-03-20T22:09:15.396Z,68.80
2018-03-20T22:11:42.336Z,68.40
2018-03-20T22:14:08.713Z,68.30
2018-03-20T22:16:35.039Z,68.30
2018-03-20T22:19:01.282Z,68.50
2018-03-20T22:21:27.924Z,68.50
2018-03-20T22:23:54.160Z,68.30
2018-03-20T22:26:20.443Z,68.20
2018-03-20T22:28:47.394Z,68.40
2018-03-20T22:31:14.400Z,68.30
2018-03-20T22:33:40.708Z,68.30
2018-03-20T22:36:07.072Z,68.50
2018-03-20T22:38:33.304Z,68.40
2018-03-20T22:40:59.520Z,68.20
2018-03-20T22:43:25.824Z,68.20
2018-03-20T22:45:52.041Z,68.40
2018-03-20T22:48:18.235Z,68.40
2018-03-20T22:50:45.197Z,68.40
2018-03-20T22:53:11.397Z,68.30
2018-03-20T22:55:37.693Z,68.30
2018-03-20T22:58:04.060Z,68.30
2018-03-20T23:00:31.190Z,68.70
2018-03-20T23:02:57.411Z,69.00
2018-03-20T23:05:23.664Z,68.80
2018-03-20T23:07:49.880Z,69.00
2018-03-20T23:10:16.079Z,69.00
2018-03-20T23:12:42.261Z,69.50
2018-03-20T23:15:09.201Z,69.30
2018-03-20T23:17:36.246Z,69.30
2018-03-20T23:20:03.239Z,68.80
2018-03-20T23:22:29.422Z,68.70
2018-03-20T23:24:56.234Z,69.80
2018-03-20T23:27:22.462Z,69.80
2018-03-20T23:29:48.773Z,70.10
2018-03-20T23:32:14.973Z,69.70
2018-03-20T23:34:41.185Z,69.40
2018-03-20T23:37:07.424Z,69.70
2018-03-20T23:39:35.112Z,69.60
2018-03-20T23:42:01.320Z,69.60
2018-03-20T23:44:28.254Z,69.70
2018-03-20T23:46:55.245Z,69.20
2018-03-20T23:49:21.438Z,69.10
2018-03-20T23:51:48.440Z,69.40
2018-03-20T23:54:14.620Z,69.20
2018-03-20T23:56:40.841Z,69.10
2018-03-20T23:59:07.837Z,68.80
